Hauptseite
METAR-TAF:

METAR-TAF

Flughäfen :

Danbury Municipal Airport

Danbury, Connecticut, Vereinigte Staaten

Breite: 41-22-18N, Länge: 073-29-04W, Höhe: 139 m

Beobachtung

Neuester Wetterbericht von vor 19 Minuten, um 21:53 UTC
Wind 8 kt aus Süd/Südwest
Temperatur 11°C
Luftfeuchtigkeit 87%
Luftdruck 1011 hPa
Sichtweite: 9.7 km
Durchbrochene Bewölkung in der Höhe von 1300 ft
Durchbrochene Bewölkung in der Höhe von 2900 ft
Geschlossene Wolkendecke in der Höhe von 7000 ft
Leichtregen, feuchter Dunst

METAR: KDXR 092153Z 20008KT 6SM -RA BR BKN013 BKN029 OVC070 11/09 A2986 RMK AO2 SLP112 P0005 T01060089

Zeit: 17:12 (22:12 UTC)


TAF: fehlend

Wetterbeobachtungen und Prognosen von mehr als 4000 Flughäfen (METAR und TAF Bericht).

Die verfügbaren Stationen werden durch gelbe und rote Markierungen auf der Karte dargestellt.

Führen Sie die Maus auf sie, um den Namen der Station zu sehen.

Darauf klicken, um die Beobachtung von Wetterbeobachtungen und Prognosen zu sehen.

Um die Karte zu ändern : klicken Sie auf den grünen Tasten mit einem schwarzen Kreuz Zum Vergrößern, auf den grünen Button mit einem Gedankenstrich zu verkleinern, oder auf die grünen Pfeile für benachbarte Karten.


METAR-TAF: